sensor_id;sensor_type;location;lat;lon;timestamp;P1;durP1;ratioP1;P2;durP2;ratioP2
85312;SDS011;75717;50.496;7.560;2024-02-26T00:01:39;2.13;;;1.10;;
85312;SDS011;75717;50.496;7.560;2024-02-26T00:04:04;1.50;;;1.02;;
85312;SDS011;75717;50.496;7.560;2024-02-26T00:06:30;2.88;;;1.38;;
85312;SDS011;75717;50.496;7.560;2024-02-26T00:08:56;1.83;;;0.95;;
85312;SDS011;75717;50.496;7.560;2024-02-26T00:11:21;2.80;;;1.20;;
85312;SDS011;75717;50.496;7.560;2024-02-26T00:13:46;2.37;;;1.10;;
85312;SDS011;75717;50.496;7.560;2024-02-26T00:16:12;2.42;;;0.98;;
85312;SDS011;75717;50.496;7.560;2024-02-26T00:18:37;2.90;;;1.17;;
85312;SDS011;75717;50.496;7.560;2024-02-26T00:21:02;1.90;;;1.10;;
85312;SDS011;75717;50.496;7.560;2024-02-26T00:23:28;2.08;;;1.38;;
85312;SDS011;75717;50.496;7.560;2024-02-26T00:25:53;2.33;;;1.20;;
85312;SDS011;75717;50.496;7.560;2024-02-26T00:28:19;2.03;;;1.20;;
85312;SDS011;75717;50.496;7.560;2024-02-26T00:30:45;2.88;;;1.35;;
85312;SDS011;75717;50.496;7.560;2024-02-26T00:33:10;3.58;;;1.13;;
85312;SDS011;75717;50.496;7.560;2024-02-26T00:35:36;2.77;;;1.23;;
85312;SDS011;75717;50.496;7.560;2024-02-26T00:38:01;4.50;;;1.20;;
85312;SDS011;75717;50.496;7.560;2024-02-26T00:40:28;3.85;;;1.02;;
85312;SDS011;75717;50.496;7.560;2024-02-26T00:42:53;2.80;;;1.40;;
85312;SDS011;75717;50.496;7.560;2024-02-26T00:45:18;2.07;;;1.20;;
85312;SDS011;75717;50.496;7.560;2024-02-26T00:47:44;4.32;;;1.33;;
85312;SDS011;75717;50.496;7.560;2024-02-26T00:50:11;2.35;;;1.02;;
85312;SDS011;75717;50.496;7.560;2024-02-26T00:52:36;1.70;;;1.10;;
85312;SDS011;75717;50.496;7.560;2024-02-26T00:55:02;2.30;;;1.10;;
85312;SDS011;75717;50.496;7.560;2024-02-26T00:57:28;1.90;;;1.00;;
85312;SDS011;75717;50.496;7.560;2024-02-26T00:59:53;1.90;;;0.93;;
85312;SDS011;75717;50.496;7.560;2024-02-26T01:02:20;3.78;;;1.10;;
85312;SDS011;75717;50.496;7.560;2024-02-26T01:04:46;1.92;;;1.00;;
85312;SDS011;75717;50.496;7.560;2024-02-26T01:07:12;2.27;;;1.20;;
85312;SDS011;75717;50.496;7.560;2024-02-26T01:09:37;3.60;;;1.37;;
85312;SDS011;75717;50.496;7.560;2024-02-26T01:12:02;1.87;;;1.07;;
85312;SDS011;75717;50.496;7.560;2024-02-26T01:14:28;2.33;;;0.98;;
85312;SDS011;75717;50.496;7.560;2024-02-26T01:16:53;2.10;;;1.30;;
85312;SDS011;75717;50.496;7.560;2024-02-26T01:19:18;2.20;;;1.20;;
85312;SDS011;75717;50.496;7.560;2024-02-26T01:21:44;2.20;;;1.10;;
85312;SDS011;75717;50.496;7.560;2024-02-26T01:24:09;2.47;;;1.23;;
85312;SDS011;75717;50.496;7.560;2024-02-26T01:26:34;1.80;;;0.90;;
85312;SDS011;75717;50.496;7.560;2024-02-26T01:29:00;3.73;;;1.30;;
85312;SDS011;75717;50.496;7.560;2024-02-26T01:31:25;2.30;;;1.00;;
85312;SDS011;75717;50.496;7.560;2024-02-26T01:33:50;2.15;;;1.08;;
85312;SDS011;75717;50.496;7.560;2024-02-26T01:36:16;2.47;;;1.00;;
85312;SDS011;75717;50.496;7.560;2024-02-26T01:38:41;1.87;;;0.90;;
85312;SDS011;75717;50.496;7.560;2024-02-26T01:41:06;1.20;;;0.80;;
85312;SDS011;75717;50.496;7.560;2024-02-26T01:43:32;2.47;;;0.80;;
85312;SDS011;75717;50.496;7.560;2024-02-26T01:45:57;3.13;;;0.90;;
85312;SDS011;75717;50.496;7.560;2024-02-26T01:48:23;1.90;;;0.70;;
85312;SDS011;75717;50.496;7.560;2024-02-26T01:50:48;2.03;;;0.77;;
85312;SDS011;75717;50.496;7.560;2024-02-26T01:53:15;2.05;;;0.90;;
85312;SDS011;75717;50.496;7.560;2024-02-26T01:55:41;1.45;;;0.82;;
85312;SDS011;75717;50.496;7.560;2024-02-26T01:58:06;3.13;;;0.90;;
85312;SDS011;75717;50.496;7.560;2024-02-26T02:00:32;1.20;;;0.85;;
85312;SDS011;75717;50.496;7.560;2024-02-26T02:02:57;1.52;;;0.90;;
85312;SDS011;75717;50.496;7.560;2024-02-26T02:05:23;1.27;;;0.93;;
85312;SDS011;75717;50.496;7.560;2024-02-26T02:07:48;2.83;;;1.05;;
85312;SDS011;75717;50.496;7.560;2024-02-26T02:10:14;2.20;;;1.13;;
85312;SDS011;75717;50.496;7.560;2024-02-26T02:12:40;2.42;;;1.10;;
85312;SDS011;75717;50.496;7.560;2024-02-26T02:15:05;3.05;;;1.23;;
85312;SDS011;75717;50.496;7.560;2024-02-26T02:17:31;4.57;;;1.00;;
85312;SDS011;75717;50.496;7.560;2024-02-26T02:19:56;1.52;;;0.98;;
85312;SDS011;75717;50.496;7.560;2024-02-26T02:22:22;1.47;;;1.00;;
85312;SDS011;75717;50.496;7.560;2024-02-26T02:24:48;2.20;;;0.80;;
85312;SDS011;75717;50.496;7.560;2024-02-26T02:27:14;2.15;;;1.05;;
85312;SDS011;75717;50.496;7.560;2024-02-26T02:29:39;2.47;;;1.30;;
85312;SDS011;75717;50.496;7.560;2024-02-26T02:32:04;3.17;;;0.90;;
85312;SDS011;75717;50.496;7.560;2024-02-26T02:34:30;2.00;;;0.93;;
85312;SDS011;75717;50.496;7.560;2024-02-26T02:36:56;1.52;;;0.70;;
85312;SDS011;75717;50.496;7.560;2024-02-26T02:39:22;1.63;;;0.80;;
85312;SDS011;75717;50.496;7.560;2024-02-26T02:41:47;1.90;;;1.00;;
85312;SDS011;75717;50.496;7.560;2024-02-26T02:44:12;4.53;;;0.80;;
85312;SDS011;75717;50.496;7.560;2024-02-26T02:46:38;1.37;;;0.80;;
85312;SDS011;75717;50.496;7.560;2024-02-26T02:49:04;0.88;;;0.63;;
85312;SDS011;75717;50.496;7.560;2024-02-26T02:51:29;2.85;;;0.77;;
85312;SDS011;75717;50.496;7.560;2024-02-26T02:53:54;1.27;;;0.80;;
85312;SDS011;75717;50.496;7.560;2024-02-26T02:56:20;1.93;;;0.77;;
85312;SDS011;75717;50.496;7.560;2024-02-26T02:58:45;1.93;;;1.00;;
85312;SDS011;75717;50.496;7.560;2024-02-26T03:01:10;2.17;;;1.17;;
85312;SDS011;75717;50.496;7.560;2024-02-26T03:03:35;1.97;;;0.93;;
85312;SDS011;75717;50.496;7.560;2024-02-26T03:06:02;2.20;;;0.95;;
85312;SDS011;75717;50.496;7.560;2024-02-26T03:08:28;1.38;;;0.77;;
85312;SDS011;75717;50.496;7.560;2024-02-26T03:10:54;2.50;;;1.30;;
85312;SDS011;75717;50.496;7.560;2024-02-26T03:13:19;1.63;;;1.00;;
85312;SDS011;75717;50.496;7.560;2024-02-26T03:15:44;1.35;;;0.73;;
85312;SDS011;75717;50.496;7.560;2024-02-26T03:18:09;2.30;;;1.30;;
85312;SDS011;75717;50.496;7.560;2024-02-26T03:20:35;1.60;;;1.17;;
85312;SDS011;75717;50.496;7.560;2024-02-26T03:23:00;1.70;;;0.97;;
85312;SDS011;75717;50.496;7.560;2024-02-26T03:25:25;2.47;;;1.20;;
85312;SDS011;75717;50.496;7.560;2024-02-26T03:27:51;2.13;;;1.10;;
85312;SDS011;75717;50.496;7.560;2024-02-26T03:30:16;2.43;;;1.37;;
85312;SDS011;75717;50.496;7.560;2024-02-26T03:32:41;2.27;;;1.10;;
85312;SDS011;75717;50.496;7.560;2024-02-26T03:35:06;2.57;;;1.00;;
85312;SDS011;75717;50.496;7.560;2024-02-26T03:37:33;2.42;;;1.13;;
85312;SDS011;75717;50.496;7.560;2024-02-26T03:39:58;2.30;;;1.23;;
85312;SDS011;75717;50.496;7.560;2024-02-26T03:42:24;1.15;;;0.90;;
85312;SDS011;75717;50.496;7.560;2024-02-26T03:44:49;1.75;;;1.02;;
85312;SDS011;75717;50.496;7.560;2024-02-26T03:47:14;2.92;;;1.38;;
85312;SDS011;75717;50.496;7.560;2024-02-26T03:49:41;1.83;;;1.23;;
85312;SDS011;75717;50.496;7.560;2024-02-26T03:52:06;3.17;;;1.38;;
85312;SDS011;75717;50.496;7.560;2024-02-26T03:54:31;4.00;;;1.27;;
85312;SDS011;75717;50.496;7.560;2024-02-26T03:56:57;2.90;;;1.50;;
85312;SDS011;75717;50.496;7.560;2024-02-26T03:59:22;2.43;;;1.07;;
85312;SDS011;75717;50.496;7.560;2024-02-26T04:01:49;2.35;;;1.20;;
85312;SDS011;75717;50.496;7.560;2024-02-26T04:04:15;2.63;;;1.13;;
85312;SDS011;75717;50.496;7.560;2024-02-26T04:06:43;6.00;;;1.73;;
85312;SDS011;75717;50.496;7.560;2024-02-26T04:09:09;5.18;;;1.50;;
85312;SDS011;75717;50.496;7.560;2024-02-26T04:11:35;2.97;;;1.60;;
85312;SDS011;75717;50.496;7.560;2024-02-26T04:14:00;2.77;;;1.63;;
85312;SDS011;75717;50.496;7.560;2024-02-26T04:16:25;6.23;;;1.70;;
85312;SDS011;75717;50.496;7.560;2024-02-26T04:18:51;1.67;;;1.17;;
85312;SDS011;75717;50.496;7.560;2024-02-26T04:21:18;4.55;;;1.83;;
85312;SDS011;75717;50.496;7.560;2024-02-26T04:23:43;4.00;;;1.52;;
85312;SDS011;75717;50.496;7.560;2024-02-26T04:26:09;5.93;;;2.00;;
85312;SDS011;75717;50.496;7.560;2024-02-26T04:28:34;4.50;;;1.60;;
85312;SDS011;75717;50.496;7.560;2024-02-26T04:30:59;3.03;;;1.80;;
85312;SDS011;75717;50.496;7.560;2024-02-26T04:33:24;7.05;;;2.33;;
85312;SDS011;75717;50.496;7.560;2024-02-26T04:35:50;3.73;;;1.83;;
85312;SDS011;75717;50.496;7.560;2024-02-26T04:38:15;7.73;;;2.87;;
85312;SDS011;75717;50.496;7.560;2024-02-26T04:40:40;3.10;;;1.57;;
85312;SDS011;75717;50.496;7.560;2024-02-26T04:43:06;3.40;;;1.80;;
85312;SDS011;75717;50.496;7.560;2024-02-26T04:45:31;6.03;;;1.90;;
85312;SDS011;75717;50.496;7.560;2024-02-26T04:47:56;6.07;;;2.30;;
85312;SDS011;75717;50.496;7.560;2024-02-26T04:50:21;4.73;;;1.87;;
85312;SDS011;75717;50.496;7.560;2024-02-26T04:52:47;5.63;;;2.10;;
85312;SDS011;75717;50.496;7.560;2024-02-26T04:55:12;6.17;;;2.17;;
85312;SDS011;75717;50.496;7.560;2024-02-26T04:57:37;3.80;;;2.23;;
85312;SDS011;75717;50.496;7.560;2024-02-26T05:00:03;4.30;;;1.97;;
85312;SDS011;75717;50.496;7.560;2024-02-26T05:02:30;5.00;;;2.10;;
85312;SDS011;75717;50.496;7.560;2024-02-26T05:04:57;6.13;;;2.00;;
85312;SDS011;75717;50.496;7.560;2024-02-26T05:07:22;3.38;;;2.03;;
85312;SDS011;75717;50.496;7.560;2024-02-26T05:09:47;4.17;;;1.87;;
85312;SDS011;75717;50.496;7.560;2024-02-26T05:12:14;4.82;;;1.70;;
85312;SDS011;75717;50.496;7.560;2024-02-26T05:14:40;10.60;;;2.03;;
85312;SDS011;75717;50.496;7.560;2024-02-26T05:17:05;3.80;;;1.75;;
85312;SDS011;75717;50.496;7.560;2024-02-26T05:19:31;4.28;;;2.00;;
85312;SDS011;75717;50.496;7.560;2024-02-26T05:21:56;5.10;;;2.72;;
85312;SDS011;75717;50.496;7.560;2024-02-26T05:24:22;5.40;;;2.45;;
85312;SDS011;75717;50.496;7.560;2024-02-26T05:26:47;6.07;;;2.42;;
85312;SDS011;75717;50.496;7.560;2024-02-26T05:29:12;4.30;;;2.20;;
85312;SDS011;75717;50.496;7.560;2024-02-26T05:31:38;4.63;;;2.47;;
85312;SDS011;75717;50.496;7.560;2024-02-26T05:34:03;6.57;;;2.35;;
85312;SDS011;75717;50.496;7.560;2024-02-26T05:36:28;4.93;;;2.50;;
85312;SDS011;75717;50.496;7.560;2024-02-26T05:38:58;5.57;;;2.70;;
85312;SDS011;75717;50.496;7.560;2024-02-26T05:41:26;5.03;;;2.47;;
85312;SDS011;75717;50.496;7.560;2024-02-26T05:43:54;7.05;;;2.50;;
85312;SDS011;75717;50.496;7.560;2024-02-26T05:46:20;4.60;;;2.28;;
85312;SDS011;75717;50.496;7.560;2024-02-26T05:48:52;5.00;;;2.25;;
85312;SDS011;75717;50.496;7.560;2024-02-26T05:51:18;6.85;;;2.40;;
85312;SDS011;75717;50.496;7.560;2024-02-26T05:53:43;4.60;;;2.58;;
85312;SDS011;75717;50.496;7.560;2024-02-26T05:56:09;4.40;;;2.30;;
85312;SDS011;75717;50.496;7.560;2024-02-26T05:58:34;4.78;;;2.47;;
85312;SDS011;75717;50.496;7.560;2024-02-26T06:00:59;3.92;;;2.30;;
85312;SDS011;75717;50.496;7.560;2024-02-26T06:03:25;6.10;;;2.08;;
85312;SDS011;75717;50.496;7.560;2024-02-26T06:05:51;4.97;;;2.42;;
85312;SDS011;75717;50.496;7.560;2024-02-26T06:08:16;6.03;;;2.90;;
85312;SDS011;75717;50.496;7.560;2024-02-26T06:10:41;5.00;;;2.47;;
85312;SDS011;75717;50.496;7.560;2024-02-26T06:13:06;8.37;;;2.93;;
85312;SDS011;75717;50.496;7.560;2024-02-26T06:15:32;5.47;;;2.90;;
85312;SDS011;75717;50.496;7.560;2024-02-26T06:17:57;3.93;;;2.00;;
85312;SDS011;75717;50.496;7.560;2024-02-26T06:20:22;6.90;;;2.50;;
85312;SDS011;75717;50.496;7.560;2024-02-26T06:22:48;8.45;;;2.67;;
85312;SDS011;75717;50.496;7.560;2024-02-26T06:25:13;4.53;;;2.20;;
85312;SDS011;75717;50.496;7.560;2024-02-26T06:27:38;4.68;;;2.70;;
85312;SDS011;75717;50.496;7.560;2024-02-26T06:30:04;5.13;;;2.70;;
85312;SDS011;75717;50.496;7.560;2024-02-26T06:32:29;4.05;;;2.10;;
85312;SDS011;75717;50.496;7.560;2024-02-26T06:34:55;7.20;;;2.43;;
85312;SDS011;75717;50.496;7.560;2024-02-26T06:37:20;4.80;;;2.40;;
85312;SDS011;75717;50.496;7.560;2024-02-26T06:39:45;5.40;;;2.63;;
85312;SDS011;75717;50.496;7.560;2024-02-26T06:42:11;5.65;;;2.67;;
85312;SDS011;75717;50.496;7.560;2024-02-26T06:44:36;6.65;;;2.05;;
85312;SDS011;75717;50.496;7.560;2024-02-26T06:47:01;4.50;;;2.53;;
85312;SDS011;75717;50.496;7.560;2024-02-26T06:49:27;6.45;;;2.53;;
85312;SDS011;75717;50.496;7.560;2024-02-26T06:51:53;5.32;;;2.58;;
85312;SDS011;75717;50.496;7.560;2024-02-26T06:54:18;9.18;;;2.50;;
85312;SDS011;75717;50.496;7.560;2024-02-26T06:56:43;4.20;;;2.33;;
85312;SDS011;75717;50.496;7.560;2024-02-26T06:59:09;5.10;;;2.70;;
85312;SDS011;75717;50.496;7.560;2024-02-26T07:01:34;6.27;;;2.27;;
85312;SDS011;75717;50.496;7.560;2024-02-26T07:03:59;6.15;;;2.85;;
85312;SDS011;75717;50.496;7.560;2024-02-26T07:06:25;6.13;;;2.70;;
85312;SDS011;75717;50.496;7.560;2024-02-26T07:08:51;5.63;;;2.58;;
85312;SDS011;75717;50.496;7.560;2024-02-26T07:11:17;4.17;;;2.20;;
85312;SDS011;75717;50.496;7.560;2024-02-26T07:13:44;4.90;;;2.60;;
85312;SDS011;75717;50.496;7.560;2024-02-26T07:16:09;3.23;;;1.93;;
85312;SDS011;75717;50.496;7.560;2024-02-26T07:18:35;7.18;;;2.30;;
85312;SDS011;75717;50.496;7.560;2024-02-26T07:21:03;5.22;;;2.42;;
85312;SDS011;75717;50.496;7.560;2024-02-26T07:23:29;5.03;;;2.47;;
85312;SDS011;75717;50.496;7.560;2024-02-26T07:25:54;6.03;;;2.70;;
85312;SDS011;75717;50.496;7.560;2024-02-26T07:28:19;4.80;;;2.37;;
85312;SDS011;75717;50.496;7.560;2024-02-26T07:30:45;5.68;;;2.88;;
85312;SDS011;75717;50.496;7.560;2024-02-26T07:33:10;5.85;;;2.70;;
85312;SDS011;75717;50.496;7.560;2024-02-26T07:35:35;8.67;;;3.10;;
85312;SDS011;75717;50.496;7.560;2024-02-26T07:38:04;4.78;;;2.55;;
85312;SDS011;75717;50.496;7.560;2024-02-26T07:40:30;4.20;;;2.22;;
85312;SDS011;75717;50.496;7.560;2024-02-26T07:42:55;4.78;;;2.42;;
85312;SDS011;75717;50.496;7.560;2024-02-26T07:45:21;3.72;;;2.20;;
85312;SDS011;75717;50.496;7.560;2024-02-26T07:47:47;5.28;;;2.75;;
85312;SDS011;75717;50.496;7.560;2024-02-26T07:50:12;6.07;;;2.40;;
85312;SDS011;75717;50.496;7.560;2024-02-26T07:52:38;7.15;;;2.95;;
85312;SDS011;75717;50.496;7.560;2024-02-26T07:55:03;6.65;;;2.65;;
85312;SDS011;75717;50.496;7.560;2024-02-26T07:57:29;6.18;;;3.10;;
85312;SDS011;75717;50.496;7.560;2024-02-26T07:59:55;4.55;;;2.67;;
85312;SDS011;75717;50.496;7.560;2024-02-26T08:02:20;7.53;;;2.90;;
85312;SDS011;75717;50.496;7.560;2024-02-26T08:04:47;6.80;;;3.33;;
85312;SDS011;75717;50.496;7.560;2024-02-26T08:07:12;6.85;;;3.15;;
85312;SDS011;75717;50.496;7.560;2024-02-26T08:09:37;4.28;;;2.35;;
85312;SDS011;75717;50.496;7.560;2024-02-26T08:12:03;5.23;;;3.00;;
85312;SDS011;75717;50.496;7.560;2024-02-26T08:14:28;5.82;;;2.60;;
85312;SDS011;75717;50.496;7.560;2024-02-26T08:16:53;6.13;;;3.10;;
85312;SDS011;75717;50.496;7.560;2024-02-26T08:19:19;7.50;;;3.30;;
85312;SDS011;75717;50.496;7.560;2024-02-26T08:21:44;4.70;;;2.63;;
85312;SDS011;75717;50.496;7.560;2024-02-26T08:24:09;6.03;;;2.95;;
85312;SDS011;75717;50.496;7.560;2024-02-26T08:26:35;7.97;;;3.72;;
85312;SDS011;75717;50.496;7.560;2024-02-26T08:29:00;4.95;;;2.70;;
85312;SDS011;75717;50.496;7.560;2024-02-26T08:31:26;6.25;;;3.30;;
85312;SDS011;75717;50.496;7.560;2024-02-26T08:33:52;9.70;;;3.55;;
85312;SDS011;75717;50.496;7.560;2024-02-26T08:36:18;5.32;;;2.90;;
85312;SDS011;75717;50.496;7.560;2024-02-26T08:38:43;7.63;;;3.25;;
85312;SDS011;75717;50.496;7.560;2024-02-26T08:41:08;6.63;;;3.37;;
85312;SDS011;75717;50.496;7.560;2024-02-26T08:43:34;5.85;;;2.80;;
85312;SDS011;75717;50.496;7.560;2024-02-26T08:45:59;9.80;;;3.97;;
85312;SDS011;75717;50.496;7.560;2024-02-26T08:48:25;6.17;;;2.70;;
85312;SDS011;75717;50.496;7.560;2024-02-26T08:50:50;6.45;;;3.15;;
85312;SDS011;75717;50.496;7.560;2024-02-26T08:53:15;6.60;;;2.60;;
85312;SDS011;75717;50.496;7.560;2024-02-26T08:55:40;7.03;;;3.50;;
85312;SDS011;75717;50.496;7.560;2024-02-26T08:58:06;8.37;;;4.40;;
85312;SDS011;75717;50.496;7.560;2024-02-26T09:00:31;7.80;;;4.60;;
85312;SDS011;75717;50.496;7.560;2024-02-26T09:02:56;12.27;;;3.13;;
85312;SDS011;75717;50.496;7.560;2024-02-26T09:05:22;6.90;;;2.93;;
85312;SDS011;75717;50.496;7.560;2024-02-26T09:07:50;6.45;;;3.50;;
85312;SDS011;75717;50.496;7.560;2024-02-26T09:10:17;6.82;;;2.60;;
85312;SDS011;75717;50.496;7.560;2024-02-26T09:12:42;7.82;;;2.70;;
85312;SDS011;75717;50.496;7.560;2024-02-26T09:15:07;5.13;;;2.70;;
85312;SDS011;75717;50.496;7.560;2024-02-26T09:17:33;4.40;;;2.55;;
85312;SDS011;75717;50.496;7.560;2024-02-26T09:19:58;5.97;;;2.60;;
85312;SDS011;75717;50.496;7.560;2024-02-26T09:22:24;6.70;;;2.70;;
85312;SDS011;75717;50.496;7.560;2024-02-26T09:24:49;7.13;;;3.37;;
85312;SDS011;75717;50.496;7.560;2024-02-26T09:27:16;6.30;;;2.88;;
85312;SDS011;75717;50.496;7.560;2024-02-26T09:29:42;6.25;;;2.95;;
85312;SDS011;75717;50.496;7.560;2024-02-26T09:32:07;6.97;;;2.80;;
85312;SDS011;75717;50.496;7.560;2024-02-26T09:34:32;5.47;;;2.83;;
85312;SDS011;75717;50.496;7.560;2024-02-26T09:36:58;6.53;;;3.20;;
85312;SDS011;75717;50.496;7.560;2024-02-26T09:39:24;4.88;;;2.55;;
85312;SDS011;75717;50.496;7.560;2024-02-26T09:41:49;4.68;;;2.63;;
85312;SDS011;75717;50.496;7.560;2024-02-26T09:44:20;5.85;;;2.80;;
85312;SDS011;75717;50.496;7.560;2024-02-26T09:46:47;6.05;;;2.45;;
85312;SDS011;75717;50.496;7.560;2024-02-26T09:49:14;6.63;;;3.28;;
85312;SDS011;75717;50.496;7.560;2024-02-26T09:51:40;5.28;;;2.75;;
85312;SDS011;75717;50.496;7.560;2024-02-26T09:54:06;9.70;;;3.03;;
85312;SDS011;75717;50.496;7.560;2024-02-26T09:56:32;8.90;;;3.05;;
85312;SDS011;75717;50.496;7.560;2024-02-26T09:58:57;6.18;;;2.63;;
85312;SDS011;75717;50.496;7.560;2024-02-26T10:01:23;5.75;;;2.88;;
85312;SDS011;75717;50.496;7.560;2024-02-26T10:03:56;4.93;;;2.80;;
85312;SDS011;75717;50.496;7.560;2024-02-26T10:06:23;7.03;;;3.45;;
85312;SDS011;75717;50.496;7.560;2024-02-26T10:08:49;5.90;;;2.95;;
85312;SDS011;75717;50.496;7.560;2024-02-26T10:11:15;6.53;;;2.97;;
85312;SDS011;75717;50.496;7.560;2024-02-26T10:13:41;8.55;;;3.13;;
85312;SDS011;75717;50.496;7.560;2024-02-26T10:16:06;6.60;;;2.50;;
85312;SDS011;75717;50.496;7.560;2024-02-26T10:18:47;5.75;;;3.17;;
85312;SDS011;75717;50.496;7.560;2024-02-26T10:21:13;5.72;;;3.00;;
85312;SDS011;75717;50.496;7.560;2024-02-26T10:23:40;7.82;;;3.53;;
85312;SDS011;75717;50.496;7.560;2024-02-26T10:26:06;7.60;;;3.20;;
85312;SDS011;75717;50.496;7.560;2024-02-26T10:28:32;6.75;;;3.08;;
85312;SDS011;75717;50.496;7.560;2024-02-26T10:30:58;6.70;;;3.38;;
85312;SDS011;75717;50.496;7.560;2024-02-26T10:33:23;11.30;;;3.17;;
85312;SDS011;75717;50.496;7.560;2024-02-26T10:35:49;7.93;;;3.22;;
85312;SDS011;75717;50.496;7.560;2024-02-26T10:38:15;7.60;;;2.97;;
85312;SDS011;75717;50.496;7.560;2024-02-26T10:40:45;6.53;;;2.97;;
85312;SDS011;75717;50.496;7.560;2024-02-26T10:43:10;6.80;;;3.28;;
85312;SDS011;75717;50.496;7.560;2024-02-26T10:45:35;7.95;;;3.67;;
85312;SDS011;75717;50.496;7.560;2024-02-26T10:48:02;9.25;;;3.38;;
85312;SDS011;75717;50.496;7.560;2024-02-26T10:50:27;8.55;;;3.47;;
85312;SDS011;75717;50.496;7.560;2024-02-26T10:52:53;11.18;;;3.38;;
85312;SDS011;75717;50.496;7.560;2024-02-26T10:55:19;7.88;;;3.63;;
85312;SDS011;75717;50.496;7.560;2024-02-26T10:57:45;7.63;;;3.58;;
85312;SDS011;75717;50.496;7.560;2024-02-26T11:00:14;6.95;;;3.20;;
85312;SDS011;75717;50.496;7.560;2024-02-26T11:02:40;7.07;;;3.25;;
85312;SDS011;75717;50.496;7.560;2024-02-26T11:05:07;6.15;;;3.85;;
85312;SDS011;75717;50.496;7.560;2024-02-26T11:07:35;9.60;;;4.43;;
85312;SDS011;75717;50.496;7.560;2024-02-26T11:10:05;8.45;;;4.00;;
85312;SDS011;75717;50.496;7.560;2024-02-26T11:12:31;7.38;;;3.90;;
85312;SDS011;75717;50.496;7.560;2024-02-26T11:14:57;8.50;;;4.13;;
85312;SDS011;75717;50.496;7.560;2024-02-26T11:17:25;14.68;;;5.05;;
85312;SDS011;75717;50.496;7.560;2024-02-26T11:22:20;8.15;;;2.97;;
85312;SDS011;75717;50.496;7.560;2024-02-26T11:24:47;5.78;;;3.40;;
85312;SDS011;75717;50.496;7.560;2024-02-26T11:27:13;7.93;;;3.42;;
85312;SDS011;75717;50.496;7.560;2024-02-26T11:29:39;5.38;;;2.72;;
85312;SDS011;75717;50.496;7.560;2024-02-26T11:32:07;6.20;;;2.92;;
85312;SDS011;75717;50.496;7.560;2024-02-26T11:34:33;6.03;;;2.95;;
85312;SDS011;75717;50.496;7.560;2024-02-26T11:37:08;7.82;;;2.70;;
85312;SDS011;75717;50.496;7.560;2024-02-26T11:39:37;8.20;;;3.92;;
85312;SDS011;75717;50.496;7.560;2024-02-26T11:42:04;6.95;;;3.30;;
85312;SDS011;75717;50.496;7.560;2024-02-26T11:44:31;6.85;;;3.22;;
85312;SDS011;75717;50.496;7.560;2024-02-26T11:46:56;8.87;;;2.97;;
85312;SDS011;75717;50.496;7.560;2024-02-26T11:59:50;6.00;;;3.53;;
85312;SDS011;75717;50.496;7.560;2024-02-26T12:05:17;7.57;;;3.63;;
85312;SDS011;75717;50.496;7.560;2024-02-26T12:08:26;11.55;;;4.32;;
85312;SDS011;75717;50.496;7.560;2024-02-26T12:13:07;19.77;;;6.20;;
85312;SDS011;75717;50.496;7.560;2024-02-26T12:15:46;12.18;;;4.38;;
85312;SDS011;75717;50.496;7.560;2024-02-26T12:18:22;8.48;;;3.60;;
85312;SDS011;75717;50.496;7.560;2024-02-26T12:20:58;5.50;;;2.90;;
85312;SDS011;75717;50.496;7.560;2024-02-26T12:23:24;7.18;;;3.75;;
85312;SDS011;75717;50.496;7.560;2024-02-26T12:25:50;7.50;;;3.38;;
85312;SDS011;75717;50.496;7.560;2024-02-26T12:28:15;9.67;;;4.43;;
85312;SDS011;75717;50.496;7.560;2024-02-26T12:30:40;8.13;;;3.83;;
85312;SDS011;75717;50.496;7.560;2024-02-26T12:33:06;11.20;;;3.97;;
85312;SDS011;75717;50.496;7.560;2024-02-26T12:35:33;9.35;;;3.30;;
85312;SDS011;75717;50.496;7.560;2024-02-26T12:38:00;8.05;;;3.85;;
85312;SDS011;75717;50.496;7.560;2024-02-26T12:40:25;6.82;;;3.65;;
85312;SDS011;75717;50.496;7.560;2024-02-26T12:42:51;7.68;;;3.55;;
85312;SDS011;75717;50.496;7.560;2024-02-26T12:45:20;6.47;;;3.50;;
85312;SDS011;75717;50.496;7.560;2024-02-26T12:47:45;8.93;;;3.88;;
85312;SDS011;75717;50.496;7.560;2024-02-26T12:50:11;6.43;;;3.30;;
85312;SDS011;75717;50.496;7.560;2024-02-26T12:52:39;6.38;;;3.10;;
85312;SDS011;75717;50.496;7.560;2024-02-26T12:55:08;7.40;;;3.50;;
85312;SDS011;75717;50.496;7.560;2024-02-26T12:57:35;8.50;;;3.47;;
85312;SDS011;75717;50.496;7.560;2024-02-26T13:00:02;5.88;;;2.90;;
85312;SDS011;75717;50.496;7.560;2024-02-26T13:02:29;8.85;;;3.50;;
85312;SDS011;75717;50.496;7.560;2024-02-26T13:04:55;13.45;;;5.88;;
85312;SDS011;75717;50.496;7.560;2024-02-26T13:07:21;17.02;;;6.85;;
85312;SDS011;75717;50.496;7.560;2024-02-26T13:09:49;16.92;;;7.80;;
85312;SDS011;75717;50.496;7.560;2024-02-26T13:12:17;7.55;;;3.83;;
85312;SDS011;75717;50.496;7.560;2024-02-26T13:14:42;12.80;;;6.35;;
85312;SDS011;75717;50.496;7.560;2024-02-26T13:17:08;10.97;;;5.17;;
85312;SDS011;75717;50.496;7.560;2024-02-26T13:19:33;12.83;;;4.93;;
85312;SDS011;75717;50.496;7.560;2024-02-26T13:22:05;7.75;;;3.92;;
85312;SDS011;75717;50.496;7.560;2024-02-26T13:24:31;10.18;;;4.57;;
85312;SDS011;75717;50.496;7.560;2024-02-26T13:26:59;17.98;;;6.35;;
85312;SDS011;75717;50.496;7.560;2024-02-26T13:29:28;11.80;;;4.43;;
85312;SDS011;75717;50.496;7.560;2024-02-26T13:31:54;7.30;;;4.20;;
85312;SDS011;75717;50.496;7.560;2024-02-26T13:34:27;10.98;;;5.20;;
85312;SDS011;75717;50.496;7.560;2024-02-26T13:36:55;8.95;;;3.80;;
85312;SDS011;75717;50.496;7.560;2024-02-26T13:39:21;13.43;;;4.47;;
85312;SDS011;75717;50.496;7.560;2024-02-26T13:41:50;8.90;;;3.88;;
85312;SDS011;75717;50.496;7.560;2024-02-26T13:44:16;6.65;;;3.55;;
85312;SDS011;75717;50.496;7.560;2024-02-26T13:46:41;9.02;;;4.05;;
85312;SDS011;75717;50.496;7.560;2024-02-26T13:49:08;7.03;;;3.80;;
85312;SDS011;75717;50.496;7.560;2024-02-26T13:51:34;10.05;;;3.90;;
85312;SDS011;75717;50.496;7.560;2024-02-26T13:54:00;6.40;;;3.35;;
85312;SDS011;75717;50.496;7.560;2024-02-26T13:56:26;11.25;;;3.83;;
85312;SDS011;75717;50.496;7.560;2024-02-26T13:58:51;7.03;;;3.40;;
85312;SDS011;75717;50.496;7.560;2024-02-26T14:01:16;11.73;;;4.20;;
85312;SDS011;75717;50.496;7.560;2024-02-26T14:03:42;7.73;;;3.77;;
85312;SDS011;75717;50.496;7.560;2024-02-26T14:06:07;9.80;;;4.32;;
85312;SDS011;75717;50.496;7.560;2024-02-26T14:08:32;7.72;;;3.42;;
85312;SDS011;75717;50.496;7.560;2024-02-26T14:10:58;7.43;;;3.75;;
85312;SDS011;75717;50.496;7.560;2024-02-26T14:13:25;9.43;;;4.13;;
85312;SDS011;75717;50.496;7.560;2024-02-26T14:15:50;10.70;;;4.43;;
85312;SDS011;75717;50.496;7.560;2024-02-26T14:18:15;8.43;;;3.67;;
85312;SDS011;75717;50.496;7.560;2024-02-26T14:20:41;9.77;;;3.20;;
85312;SDS011;75717;50.496;7.560;2024-02-26T14:23:06;10.07;;;4.50;;
85312;SDS011;75717;50.496;7.560;2024-02-26T14:25:31;9.57;;;4.85;;
85312;SDS011;75717;50.496;7.560;2024-02-26T14:27:57;9.15;;;4.70;;
85312;SDS011;75717;50.496;7.560;2024-02-26T14:30:24;9.60;;;5.25;;
85312;SDS011;75717;50.496;7.560;2024-02-26T14:32:50;9.10;;;4.20;;
85312;SDS011;75717;50.496;7.560;2024-02-26T14:35:16;6.40;;;3.40;;
85312;SDS011;75717;50.496;7.560;2024-02-26T14:37:42;9.13;;;4.22;;
85312;SDS011;75717;50.496;7.560;2024-02-26T14:40:08;5.80;;;3.25;;
85312;SDS011;75717;50.496;7.560;2024-02-26T14:42:34;6.75;;;3.25;;
85312;SDS011;75717;50.496;7.560;2024-02-26T14:45:00;5.70;;;2.92;;
85312;SDS011;75717;50.496;7.560;2024-02-26T14:47:32;5.50;;;3.45;;
85312;SDS011;75717;50.496;7.560;2024-02-26T14:49:57;7.27;;;3.87;;
85312;SDS011;75717;50.496;7.560;2024-02-26T14:52:22;12.27;;;5.83;;
85312;SDS011;75717;50.496;7.560;2024-02-26T14:54:48;7.00;;;3.40;;
85312;SDS011;75717;50.496;7.560;2024-02-26T14:57:15;9.27;;;3.95;;